Time;durP1;ratioP1;P1;durP2;ratioP2;P2;SDS_P1;SDS_P2;PMS_P1;PMS_P2;Temp;Humidity;BMP_temperature;BMP_pressure;BME280_temperature;BME280_humidity;BME280_pressure;Samples;Min_cycle;Max_cycle;Signal;HPM_P1;HPM_P2
2022/02/20 00:00:50;;;;;;;3.78;1.70;;;;;;;2.73;49.07;92580.91;4999462;28;20033;-90
2022/02/20 00:04:02;;;;;;;;;;;;;;;;;;;;;
2022/02/20 00:06:57;;;;;;;4.25;1.70;;;;;;;2.51;48.78;92573.84;4996566;28;20044;-90
2022/02/20 00:09:33;;;;;;;4.00;1.60;;;;;;;2.61;49.18;92602.44;4965853;28;20133;-90
2022/02/20 00:15:33;;;;;;;;;;;;;;;;;;;;;
2022/02/20 00:18:12;;;;;;;4.10;1.73;;;;;;;2.35;47.42;92566.88;4999276;28;20411;-90
2022/02/20 00:21:13;;;;;;;2.90;1.50;;;;;;;2.32;47.62;92573.28;4997448;28;20030;-90
2022/02/20 00:24:13;;;;;;;2.08;1.25;;;;;;;2.39;48.39;92593.81;4985491;28;20056;-89
2022/02/20 00:27:14;;;;;;;2.78;1.30;;;;;;;2.20;48.13;92578.47;4978289;28;20133;-90
2022/02/20 00:30:01;;;;;;;3.10;1.45;;;;;;;2.33;48.16;92605.06;4981482;28;20054;-90
2022/02/20 00:32:42;;;;;;;;;;;;;;;;;;;;;
2022/02/20 00:35:26;;;;;;;3.28;1.42;;;;;;;2.20;48.19;92583.66;4993422;28;20056;-90
2022/02/20 00:38:28;;;;;;;4.05;1.35;;;;;;;2.17;48.22;92586.72;4961490;28;20145;-90
2022/02/20 00:41:24;;;;;;;2.83;1.60;;;;;;;2.03;48.65;92572.53;4973907;28;20064;-91
2022/02/20 00:44:39;;;;;;;3.63;1.38;;;;;;;1.92;49.18;92563.81;4979658;28;20108;-90
2022/02/20 00:47:19;;;;;;;3.08;1.40;;;;;;;1.88;48.59;92563.47;4956376;28;20038;-90
2022/02/20 00:49:57;;;;;;;3.63;1.58;;;;;;;2.18;48.76;92611.50;4960251;28;20171;-90
2022/02/20 00:52:43;;;;;;;;;;;;;;;;;;;;;
2022/02/20 00:55:55;;;;;;;2.47;1.40;;;;;;;1.85;47.91;92574.28;4964180;28;20043;-90
2022/02/20 00:58:49;;;;;;;5.45;1.70;;;;;;;1.83;47.93;92576.28;4950912;28;20061;-89
2022/02/20 01:01:30;;;;;;;3.38;1.40;;;;;;;1.90;47.38;92576.16;4976481;28;20538;-90
2022/02/20 01:04:26;;;;;;;;;;;;;;;;;;;;;
2022/02/20 01:07:04;;;;;;;2.50;1.38;;;;;;;2.32;46.64;92631.91;4959937;28;20081;-91
2022/02/20 01:10:15;;;;;;;4.43;1.85;;;;;;;2.07;47.24;92591.69;4971558;28;20075;-90
2022/02/20 01:12:59;;;;;;;5.45;1.70;;;;;;;1.96;49.09;92589.94;4973381;28;20043;-90
2022/02/20 01:16:20;;;;;;;3.45;1.60;;;;;;;2.36;49.20;92658.84;4942607;28;20142;-90
2022/02/20 01:19:08;;;;;;;4.55;1.70;;;;;;;2.13;48.79;92641.63;4947271;28;20039;-89
2022/02/20 01:22:28;;;;;;;;;;;;;;;;;;;;;
2022/02/20 01:25:26;;;;;;;;;;;;;;;;;;;;;
2022/02/20 01:28:26;;;;;;;3.30;1.48;;;;;;;1.96;48.83;92638.97;4958257;28;20050;-90
2022/02/20 01:31:18;;;;;;;8.15;2.72;;;;;;;1.93;49.47;92642.03;4961219;28;20046;-91
2022/02/20 01:33:58;;;;;;;4.18;2.00;;;;;;;1.97;48.58;92643.16;4976223;28;20040;-90
2022/02/20 01:36:54;;;;;;;5.70;1.70;;;;;;;1.87;44.59;92587.72;4960488;28;20050;-89
2022/02/20 01:39:43;;;;;;;;;;;;;;;;;;;;;
2022/02/20 01:42:53;;;;;;;;;;;;;;;;;;;;;
2022/02/20 01:45:50;;;;;;;1.98;1.00;;;;;;;2.87;42.04;92664.88;4987847;28;20040;-90
2022/02/20 01:48:34;;;;;;;;;;;;;;;;;;;;;
2022/02/20 01:51:35;;;;;;;2.05;1.00;;;;;;;3.02;41.55;92651.44;4977502;28;20038;-90
2022/02/20 01:54:37;;;;;;;1.35;0.90;;;;;;;2.56;41.30;92576.50;4981752;28;20058;-90
2022/02/20 01:57:32;;;;;;;1.70;0.98;;;;;;;2.63;41.61;92582.28;4963088;28;20050;-89
2022/02/20 02:00:29;;;;;;;4.45;0.98;;;;;;;2.84;41.83;92616.25;4972207;28;20401;-88
2022/02/20 02:03:25;;;;;;;1.52;1.02;;;;;;;2.57;42.16;92582.44;4970239;28;20078;-90
2022/02/20 02:06:28;;;;;;;3.90;1.20;;;;;;;2.90;43.07;92635.97;4972676;28;20038;-91
2022/02/20 02:09:12;;;;;;;4.07;1.50;;;;;;;2.62;43.51;92598.81;4956210;28;20047;-89
2022/02/20 02:12:22;;;;;;;;;;;;;;;;;;;;;
2022/02/20 02:15:27;;;;;;;;;;;;;;;;;;;;;
2022/02/20 02:18:27;;;;;;;;;;;;;;;;;;;;;
2022/02/20 02:21:54;;;;;;;3.15;1.52;;;;;;;2.40;47.31;92609.06;4962424;28;20133;-90
2022/02/20 02:24:42;;;;;;;6.88;1.60;;;;;;;1.85;47.80;92522.63;4972735;28;20042;-90
2022/02/20 02:27:53;;;;;;;3.67;1.67;;;;;;;2.11;48.24;92576.53;4973940;28;20042;-89
2022/02/20 02:31:24;;;;;;;;;;;;;;;;;;;;;
2022/02/20 02:34:32;;;;;;;;;;;;;;;;;;;;;
2022/02/20 02:37:34;;;;;;;;;;;;;;;;;;;;;
2022/02/20 02:40:24;;;;;;;5.82;1.90;;;;;;;1.99;50.64;92568.84;4993822;28;20041;-90
2022/02/20 02:47:07;;;;;;;4.82;2.10;;;;;;;1.99;52.63;92568.84;4968829;28;20065;-90
2022/02/20 02:49:44;;;;;;;;;;;;;;;;;;;;;
2022/02/20 02:56:06;;;;;;;2.65;1.55;;;;;;;1.83;51.14;92552.28;4996328;28;20500;-89
2022/02/20 02:59:13;;;;;;;4.57;2.05;;;;;;;1.78;51.17;92547.00;4963880;28;20057;-89
2022/02/20 03:02:18;;;;;;;4.68;1.95;;;;;;;1.91;51.97;92571.78;4994802;28;20042;-90
2022/02/20 03:05:05;;;;;;;;;;;;;;;;;;;;;
2022/02/20 03:08:04;;;;;;;;;;;;;;;;;;;;;
2022/02/20 03:11:04;;;;;;;;;;;;;;;;;;;;;
2022/02/20 03:13:40;;;;;;;6.13;2.65;;;;;;;1.61;52.72;92577.94;4978572;28;20129;-89
2022/02/20 03:16:15;;;;;;;4.90;2.03;;;;;;;1.35;53.99;92549.06;4962487;28;20368;-90
2022/02/20 03:19:00;;;;;;;;;;;;;;;1.76;53.32;92627.28;4980749;28;20034;-90
2022/02/20 03:21:57;;;;;;;4.35;2.00;;;;;;;1.22;53.47;92552.66;4992687;28;19972;-89
2022/02/20 03:24:52;;;;;;;4.93;2.33;;;;;;;1.40;54.73;92587.84;4999144;28;20076;-90
2022/02/20 03:27:33;;;;;;;4.63;2.40;;;;;;;1.20;55.46;92575.31;4970719;28;20511;-90
2022/02/20 03:30:14;;;;;;;7.50;2.70;;;;;;;1.18;56.32;92582.50;4997750;28;20038;-90
2022/02/20 03:33:03;;;;;;;7.35;3.10;;;;;;;1.09;57.18;92570.19;4982896;28;20038;-90
2022/02/20 03:36:18;;;;;;;;;;;;;;;;;;;;;
2022/02/20 03:39:12;;;;;;;7.43;3.47;;;;;;;1.27;59.84;92592.47;4997639;28;20045;-90
2022/02/20 03:41:53;;;;;;;10.57;3.90;;;;;;;1.20;62.66;92561.66;4985205;28;20042;-90
2022/02/20 03:44:42;;;;;;;9.85;4.20;;;;;;;1.14;63.05;92562.53;4997614;28;20132;-90
2022/02/20 03:47:59;;;;;;;8.00;3.88;;;;;;;1.40;63.40;92612.88;4985000;28;20044;-89
2022/02/20 03:50:58;;;;;;;;;;;;;;;;;;;;;
2022/02/20 03:53:42;;;;;;;;;;;;;;;;;;;;;
2022/02/20 03:56:15;;;;;;;10.90;4.38;;;;;;;1.05;64.87;92572.41;4982628;28;20081;-89
2022/02/20 04:01:58;;;;;;;8.02;3.80;;;;;;;1.34;67.16;92614.53;4990613;28;20507;-89
2022/02/20 04:04:31;;;;;;;6.82;3.50;;;;;;;0.95;66.16;92570.41;4965918;28;20057;-90
2022/02/20 04:07:49;;;;;;;7.00;3.42;;;;;;;1.23;65.28;92617.91;4999468;28;20039;-90
2022/02/20 04:10:40;;;;;;;;;;;;;;;;;;;;;
2022/02/20 04:13:35;;;;;;;;;;;;;;;;;;;;;
2022/02/20 04:16:42;;;;;;;;;;;;;;;;;;;;;
2022/02/20 04:19:27;;;;;;;5.20;2.88;;;;;;;1.14;59.24;92599.41;4993826;28;20049;-90
2022/02/20 04:22:16;;;;;;;;;;;;;;;;;;;;;
2022/02/20 04:24:50;;;;;;;5.78;2.50;;;;;;;0.96;60.47;92576.34;4963361;28;20056;-90
2022/02/20 04:27:36;;;;;;;;;;;;;;;;;;;;;
2022/02/20 04:33:31;;;;;;;6.72;2.97;;;;;;;1.29;58.22;92632.50;4976386;28;20043;-89
2022/02/20 04:36:34;;;;;;;;;;;;;;;;;;;;;
2022/02/20 04:39:23;;;;;;;3.30;1.58;;;;;;;1.31;48.03;92588.44;4997621;28;20050;-89
2022/02/20 04:44:54;;;;;;;2.55;1.30;;;;;;;1.37;50.72;92601.19;4996644;28;20495;-89
2022/02/20 04:47:43;;;;;;;2.75;1.40;;;;;;;1.47;51.43;92612.75;4966974;28;20173;-90
2022/02/20 04:50:40;;;;;;;3.08;1.30;;;;;;;1.26;50.88;92576.19;4998199;28;20497;-90
2022/02/20 04:53:33;;;;;;;2.22;1.30;;;;;;;1.22;49.93;92585.41;4981936;28;20065;-89
2022/02/20 04:56:59;;;;;;;;;;;;;;;;;;;;;
2022/02/20 04:59:30;;;;;;;5.97;1.10;;;;;;;1.28;48.00;92597.38;5012106;28;20073;-90
2022/02/20 05:02:30;;;;;;;2.13;1.05;;;;;;;1.09;44.65;92534.88;4983624;28;20684;-90
2022/02/20 05:05:20;;;;;;;1.33;0.90;;;;;;;1.39;41.55;92551.97;4995801;28;20053;-90
2022/02/20 05:08:11;;;;;;;2.13;0.93;;;;;;;1.75;39.44;92555.22;4980348;28;20049;-90
2022/02/20 05:11:01;;;;;;;4.75;1.10;;;;;;;2.01;39.74;92549.50;4982846;28;20046;-90
2022/02/20 05:14:14;;;;;;;;;;;;;;;;;;;;;
2022/02/20 05:16:54;;;;;;;5.70;1.38;;;;;;;2.07;41.75;92566.66;4995678;28;20121;-90
2022/02/20 05:20:08;;;;;;;3.22;1.15;;;;;;;2.16;42.29;92592.09;4969692;28;20049;-90
2022/02/20 05:23:16;;;;;;;3.38;1.30;;;;;;;2.19;42.75;92613.09;4976357;28;20138;-91
2022/02/20 05:26:10;;;;;;;;;;;;;;;;;;;;;
2022/02/20 05:28:42;;;;;;;5.83;1.30;;;;;;;1.94;40.81;92582.44;4961835;28;20499;-89
2022/02/20 05:31:25;;;;;;;2.50;1.10;;;;;;;1.91;42.20;92603.53;4961635;28;20043;-90
2022/02/20 05:34:32;;;;;;;2.75;1.50;;;;;;;1.59;42.39;92549.78;4974346;28;20048;-89
2022/02/20 05:37:08;;;;;;;1.33;1.00;;;;;;;2.21;38.79;92567.16;4974019;28;20046;-89
2022/02/20 05:39:52;;;;;;;1.98;1.15;;;;;;;2.50;37.62;92564.53;4980436;28;20488;-88
2022/02/20 05:42:44;;;;;;;3.20;1.05;;;;;;;2.41;39.69;92555.56;4979367;28;20038;-90
2022/02/20 05:45:17;;;;;;;2.38;1.20;;;;;;;2.57;40.08;92597.94;4978178;28;20049;-89
2022/02/20 05:48:22;;;;;;;;;;;;;;;;;;;;;
2022/02/20 05:51:26;;;;;;;3.72;1.65;;;;;;;1.92;41.69;92552.69;4979261;28;20396;-89
2022/02/20 05:54:18;;;;;;;;;;;;;;;;;;;;;
2022/02/20 05:57:04;;;;;;;;;;;;;;;;;;;;;
2022/02/20 05:59:48;;;;;;;2.40;1.30;;;;;;;1.53;43.50;92567.97;4976584;28;20049;-89
2022/02/20 06:02:31;;;;;;;2.22;1.00;;;;;;;1.44;43.87;92555.44;4994954;28;20038;-89
2022/02/20 06:05:09;;;;;;;1.45;1.00;;;;;;;1.42;44.23;92560.03;4945596;28;20061;-89
2022/02/20 06:08:12;;;;;;;1.58;1.02;;;;;;;1.40;45.13;92574.94;4975582;28;20046;-90
2022/02/20 06:11:10;;;;;;;;;;;;;;;;;;;;;
2022/02/20 06:14:31;;;;;;;3.70;1.00;;;;;;;1.28;44.56;92581.91;4952918;28;20065;-90
2022/02/20 06:17:41;;;;;;;2.30;1.17;;;;;;;1.81;44.44;92635.09;4964951;28;20388;-91
2022/02/20 06:27:15;;;;;;;2.33;1.23;;;;;;;2.02;44.94;92666.47;4985434;28;20051;-90
2022/02/20 06:30:03;;;;;;;2.83;1.45;;;;;;;1.81;45.95;92629.94;4964188;28;20041;-89
2022/02/20 06:33:06;;;;;;;2.53;1.15;;;;;;;1.80;45.39;92594.84;4977903;28;20042;-90
2022/02/20 06:36:06;;;;;;;4.38;1.65;;;;;;;3.75;42.27;92590.81;4947388;28;20070;-91
2022/02/20 06:38:55;;;;;;;3.60;1.33;;;;;;;6.22;36.36;92596.00;4962571;28;20043;-88
2022/02/20 06:42:22;;;;;;;;;;;;;;;;;;;;;
2022/02/20 06:45:30;;;;;;;4.35;1.70;;;;;;;10.17;31.82;92642.81;4972152;28;20739;-91
2022/02/20 06:48:31;;;;;;;4.45;1.45;;;;;;;11.35;29.61;92620.31;4954746;28;20048;-92
2022/02/20 06:51:38;;;;;;;4.03;1.60;;;;;;;12.71;27.50;92619.88;4983497;28;20383;-92
2022/02/20 06:55:02;;;;;;;3.38;1.30;;;;;;;14.16;25.03;92615.41;4998144;28;20049;-91
2022/02/20 06:58:23;;;;;;;3.17;1.60;;;;;;;15.37;22.75;92632.50;4967200;28;20133;-91
2022/02/20 07:01:20;;;;;;;3.83;1.70;;;;;;;16.40;22.06;92685.41;4980311;28;20031;-90
2022/02/20 07:04:05;;;;;;;4.10;1.75;;;;;;;16.53;22.13;92638.72;5000336;28;20046;-91
2022/02/20 07:07:24;;;;;;;;;;;;;;;;;;;;;
2022/02/20 07:10:25;;;;;;;3.65;1.70;;;;;;;18.21;19.71;92691.63;4973027;28;20814;-90
2022/02/20 07:13:44;;;;;;;5.30;1.92;;;;;;;19.42;19.49;92701.81;4961647;28;20031;-91
2022/02/20 07:16:49;;;;;;;2.85;1.48;;;;;;;19.51;18.27;92638.75;4970938;28;20043;-92
2022/02/20 07:20:06;;;;;;;3.90;1.80;;;;;;;20.32;18.50;92660.63;4979987;28;20388;-91
2022/02/20 07:23:26;;;;;;;;;;;;;;;;;;;;;
2022/02/20 07:29:17;;;;;;;;;;;;;;;;;;;;;
2022/02/20 07:32:11;;;;;;;2.90;1.48;;;;;;;17.12;18.45;92636.06;4975368;28;20142;-89
2022/02/20 07:35:02;;;;;;;;;;;;;;;;;;;;;
2022/02/20 07:37:59;;;;;;;;;;;;;;;;;;;;;
2022/02/20 07:41:02;;;;;;;;;;;;;;;;;;;;;
2022/02/20 07:43:41;;;;;;;2.97;1.60;;;;;;;22.13;15.36;92677.44;4968476;28;20117;-89
2022/02/20 07:46:53;;;;;;;3.45;1.65;;;;;;;23.23;14.60;92640.34;4959449;28;20075;-89
2022/02/20 07:49:41;;;;;;;3.30;1.33;;;;;;;22.33;14.27;92643.56;4959737;28;20035;-88
2022/02/20 07:52:28;;;;;;;;;;;;;;;;;;;;;
2022/02/20 07:55:16;;;;;;;3.75;1.70;;;;;;;20.53;16.32;92676.31;4949872;28;20042;-88
2022/02/20 07:58:20;;;;;;;;;;;;;;;;;;;;;
2022/02/20 08:01:01;;;;;;;3.65;1.60;;;;;;;19.86;16.38;92632.88;4992868;28;20045;-89
2022/02/20 08:03:54;;;;;;;;;;;;;;;;;;;;;
2022/02/20 08:06:24;;;;;;;3.42;1.52;;;;;;;15.66;20.03;92686.47;4993735;28;20580;-88
2022/02/20 08:09:28;;;;;;;3.47;1.70;;;;;;;14.61;20.97;92648.72;4994219;28;20041;-88
2022/02/20 08:11:59;;;;;;;2.05;1.17;;;;;;;14.64;23.43;92677.09;4993493;28;20042;-88
2022/02/20 08:14:43;;;;;;;3.85;1.40;;;;;;;14.65;22.46;92665.47;4994496;28;20035;-88
2022/02/20 08:17:27;;;;;;;3.10;1.50;;;;;;;14.62;22.72;92660.81;5009258;28;20049;-88
2022/02/20 08:20:11;;;;;;;3.88;1.70;;;;;;;14.34;22.80;92645.19;4994598;28;20041;-88
2022/02/20 08:22:58;;;;;;;;;;;;;;;;;;;;;
2022/02/20 08:25:27;;;;;;;5.18;2.20;;;;;;;14.04;26.06;92662.59;4960377;28;20122;-85
2022/02/20 08:27:54;;;;;;;5.82;2.53;;;;;;;13.43;27.75;92665.63;4988156;28;20150;-84
2022/02/20 08:30:20;;;;;;;4.07;1.88;;;;;;;14.15;26.50;92680.44;4959690;28;20042;-87
2022/02/20 08:32:46;;;;;;;4.32;2.00;;;;;;;14.33;25.14;92668.13;4972625;28;20043;-85
2022/02/20 08:35:11;;;;;;;3.97;1.90;;;;;;;14.55;25.59;92713.94;4981786;28;20035;-85
2022/02/20 08:37:43;;;;;;;5.40;2.45;;;;;;;14.29;27.23;92711.94;4986148;28;20046;-85
2022/02/20 08:40:11;;;;;;;3.92;2.00;;;;;;;14.64;28.25;92709.47;4974230;28;20031;-84
2022/02/20 08:42:37;;;;;;;3.42;1.70;;;;;;;15.15;25.71;92712.53;4967427;28;20050;-86
2022/02/20 08:45:03;;;;;;;3.30;1.42;;;;;;;15.58;24.58;92717.84;4975142;28;20100;-85
2022/02/20 08:47:29;;;;;;;1.92;1.17;;;;;;;15.94;23.09;92710.69;4984058;28;20409;-85
2022/02/20 08:49:55;;;;;;;4.90;1.58;;;;;;;15.93;22.38;92715.19;4992114;28;20042;-85
2022/02/20 08:52:21;;;;;;;6.90;2.88;;;;;;;15.86;28.10;92738.66;4992538;28;20142;-86
2022/02/20 08:54:49;;;;;;;6.07;2.92;;;;;;;15.27;28.27;92739.09;4991800;28;20133;-85
2022/02/20 08:57:15;;;;;;;4.70;2.40;;;;;;;14.25;28.76;92726.81;4978069;28;20047;-86
2022/02/20 08:59:41;;;;;;;7.70;2.65;;;;;;;13.36;30.26;92733.63;4972528;28;20039;-86
2022/02/20 09:02:07;;;;;;;6.90;2.90;;;;;;;13.11;30.38;92740.97;4973399;28;20488;-85
2022/02/20 09:04:33;;;;;;;5.63;2.90;;;;;;;12.79;30.93;92741.09;4987804;28;20057;-86
2022/02/20 09:06:59;;;;;;;5.70;2.38;;;;;;;13.23;28.83;92737.03;4966584;28;20046;-85
2022/02/20 09:09:24;;;;;;;4.82;2.00;;;;;;;12.46;28.79;92738.56;4975292;28;20522;-88
2022/02/20 09:11:50;;;;;;;5.25;2.53;;;;;;;12.31;30.20;92717.84;4992806;28;20039;-86
2022/02/20 09:14:16;;;;;;;4.22;2.00;;;;;;;13.13;26.98;92741.44;4991678;28;20045;-85
2022/02/20 09:16:42;;;;;;;3.25;1.60;;;;;;;13.91;25.95;92717.63;4978779;28;20042;-85
2022/02/20 09:19:07;;;;;;;4.93;1.70;;;;;;;14.81;24.01;92726.41;4986245;28;20034;-86
2022/02/20 09:21:34;;;;;;;4.22;1.75;;;;;;;15.02;24.77;92711.59;5011771;28;20038;-86
2022/02/20 09:24:00;;;;;;;6.93;2.83;;;;;;;13.35;28.94;92713.66;5017279;28;20036;-85
2022/02/20 09:26:25;;;;;;;5.35;2.30;;;;;;;12.65;29.74;92731.38;5014805;28;20037;-84
2022/02/20 09:28:51;;;;;;;4.75;1.95;;;;;;;12.15;29.03;92723.34;4998108;28;20050;-85
2022/02/20 09:31:17;;;;;;;4.60;2.40;;;;;;;12.74;29.49;92738.56;5032459;28;20387;-86
2022/02/20 09:33:43;;;;;;;7.88;2.55;;;;;;;13.07;30.20;92732.09;5031589;28;20486;-85
2022/02/20 09:36:09;;;;;;;4.85;2.30;;;;;;;12.96;29.16;92740.50;5009817;28;20034;-86
2022/02/20 09:38:36;;;;;;;5.05;2.30;;;;;;;11.66;32.12;92749.06;4990356;28;20146;-85
2022/02/20 09:41:06;;;;;;;4.90;2.30;;;;;;;11.81;31.60;92740.16;4975698;28;20132;-85
2022/02/20 09:43:36;;;;;;;5.22;2.33;;;;;;;12.05;31.75;92752.41;4993966;28;20038;-85
2022/02/20 09:46:03;;;;;;;6.32;2.35;;;;;;;12.65;30.94;92752.41;4977356;28;20488;-85
2022/02/20 09:48:29;;;;;;;5.82;2.42;;;;;;;13.65;30.31;92751.66;4987780;28;20038;-87
2022/02/20 09:50:54;;;;;;;5.03;2.38;;;;;;;13.80;28.37;92750.50;4996675;28;20040;-86
2022/02/20 09:53:20;;;;;;;4.50;1.88;;;;;;;13.84;28.79;92740.94;4994991;28;20080;-85
2022/02/20 09:55:47;;;;;;;4.93;2.00;;;;;;;13.09;30.93;92740.47;5012258;28;20093;-85
2022/02/20 09:58:14;;;;;;;5.53;2.20;;;;;;;13.25;30.45;92758.56;4981708;28;20041;-85
2022/02/20 10:00:54;;;;;;;5.88;2.08;;;;;;;12.29;30.36;92760.94;5004047;28;20041;-88
2022/02/20 10:03:31;;;;;;;4.78;2.20;;;;;;;11.29;31.18;92715.78;4985789;28;20042;-85
2022/02/20 10:05:57;;;;;;;5.32;2.20;;;;;;;12.19;30.55;92750.59;4985783;28;20053;-86
2022/02/20 10:08:23;;;;;;;4.10;2.00;;;;;;;12.57;30.86;92765.44;4994540;28;20052;-86
2022/02/20 10:10:48;;;;;;;5.45;1.83;;;;;;;13.23;28.75;92755.44;4987863;28;20034;-86
2022/02/20 10:13:25;;;;;;;5.32;2.05;;;;;;;13.01;28.14;92728.03;4975635;28;20038;-86
2022/02/20 10:15:51;;;;;;;6.80;2.30;;;;;;;13.39;30.53;92742.78;5006349;28;20141;-88
2022/02/20 10:18:35;;;;;;;4.55;1.90;;;;;;;13.07;29.17;92718.97;4983376;28;20109;-85
2022/02/20 10:21:30;;;;;;;6.60;2.25;;;;;;;12.22;31.71;92691.50;4975682;28;20064;-86
2022/02/20 10:24:15;;;;;;;6.05;2.35;;;;;;;12.15;34.08;92733.84;5026307;28;20087;-85
2022/02/20 10:27:07;;;;;;;5.93;2.70;;;;;;;12.48;32.39;92729.34;5013585;28;20407;-87
2022/02/20 10:30:16;;;;;;;5.28;2.40;;;;;;;12.88;31.12;92734.09;4991945;28;20135;-86
2022/02/20 10:32:41;;;;;;;4.88;2.25;;;;;;;13.17;30.46;92725.06;4976036;28;20436;-86
2022/02/20 10:35:13;;;;;;;5.82;2.45;;;;;;;13.15;31.62;92727.22;4975356;28;20046;-86
2022/02/20 10:37:40;;;;;;;3.95;1.73;;;;;;;14.19;26.52;92737.78;4992432;28;20062;-86
2022/02/20 10:40:25;;;;;;;3.50;1.40;;;;;;;14.32;26.41;92737.69;4959272;28;20037;-86
2022/02/20 10:42:53;;;;;;;2.95;1.30;;;;;;;15.01;25.78;92743.53;4959429;28;20188;-86
2022/02/20 10:45:37;;;;;;;4.95;2.30;;;;;;;14.92;29.19;92740.88;4991331;28;20066;-86
2022/02/20 10:48:13;;;;;;;6.03;2.55;;;;;;;14.27;29.63;92761.50;4962259;28;20034;-86
2022/02/20 10:50:39;;;;;;;4.47;2.28;;;;;;;14.15;29.37;92756.00;4995897;28;20143;-86
2022/02/20 10:53:09;;;;;;;5.28;2.10;;;;;;;14.47;29.12;92754.94;4978843;28;20429;-87
2022/02/20 10:55:39;;;;;;;6.40;2.42;;;;;;;13.80;30.10;92760.25;4995193;28;20104;-86
2022/02/20 10:58:17;;;;;;;6.38;2.50;;;;;;;13.35;30.87;92737.31;4978869;28;20038;-86
2022/02/20 11:00:47;;;;;;;6.53;2.30;;;;;;;13.83;30.29;92760.47;5005018;28;20031;-86
2022/02/20 11:03:13;;;;;;;5.80;2.30;;;;;;;13.79;29.29;92741.06;4991714;28;20057;-86
2022/02/20 11:05:40;;;;;;;5.20;2.25;;;;;;;13.70;29.87;92727.84;4927580;28;20086;-86
2022/02/20 11:08:10;;;;;;;7.07;2.55;;;;;;;14.13;29.68;92739.75;4943236;28;20038;-89
2022/02/20 11:10:38;;;;;;;5.57;2.17;;;;;;;13.74;29.25;92733.31;4959128;28;20049;-88
2022/02/20 11:13:04;;;;;;;4.95;2.20;;;;;;;13.67;29.65;92719.81;4977742;28;20491;-86
2022/02/20 11:15:34;;;;;;;5.55;2.20;;;;;;;13.70;29.59;92729.72;4962193;28;20379;-86
2022/02/20 11:18:03;;;;;;;4.88;2.03;;;;;;;13.71;29.52;92736.53;4995277;28;20046;-87
2022/02/20 11:20:33;;;;;;;3.95;1.80;;;;;;;14.25;29.18;92737.34;4962216;28;20034;-86
2022/02/20 11:23:02;;;;;;;4.03;1.90;;;;;;;14.13;27.86;92750.28;4961721;28;20051;-87
2022/02/20 11:25:30;;;;;;;3.70;1.60;;;;;;;14.24;25.87;92761.34;4953351;28;20065;-86
2022/02/20 11:27:58;;;;;;;2.65;1.30;;;;;;;14.73;24.25;92759.56;4958429;28;20039;-86
2022/02/20 11:30:24;;;;;;;4.13;1.40;;;;;;;15.25;24.44;92740.47;4958480;28;20035;-86
2022/02/20 11:32:50;;;;;;;3.90;1.35;;;;;;;15.66;23.66;92755.84;4949538;28;20054;-88
2022/02/20 11:35:17;;;;;;;2.97;1.40;;;;;;;15.96;24.89;92753.38;4974226;28;20027;-86
2022/02/20 11:37:54;;;;;;;3.38;1.60;;;;;;;15.34;23.85;92759.72;4951124;28;20042;-86
2022/02/20 11:40:21;;;;;;;2.40;1.40;;;;;;;15.44;23.92;92759.41;4995504;28;20038;-89
2022/02/20 11:43:01;;;;;;;2.72;1.40;;;;;;;15.98;22.90;92744.06;4970678;28;20053;-87
2022/02/20 11:45:27;;;;;;;3.72;1.60;;;;;;;15.53;23.09;92741.72;4975927;28;20034;-88
2022/02/20 11:48:06;;;;;;;4.05;1.25;;;;;;;15.90;24.05;92744.09;4976030;28;20061;-89
2022/02/20 11:50:41;;;;;;;3.08;1.42;;;;;;;15.25;23.76;92735.97;4959897;28;20034;-87
2022/02/20 11:53:09;;;;;;;2.45;1.40;;;;;;;14.52;24.14;92728.47;4975541;28;20042;-86
2022/02/20 11:55:44;;;;;;;5.57;1.38;;;;;;;15.28;24.48;92724.03;4975642;28;20038;-87
2022/02/20 11:58:22;;;;;;;3.03;1.20;;;;;;;15.73;24.19;92707.91;4974370;28;20460;-88
2022/02/20 12:00:54;;;;;;;3.45;1.58;;;;;;;16.17;23.76;92711.28;4959913;28;20038;-87
2022/02/20 12:03:20;;;;;;;3.92;1.45;;;;;;;15.89;22.16;92685.22;4976412;28;20050;-89
2022/02/20 12:06:10;;;;;;;2.47;1.40;;;;;;;15.78;23.31;92697.19;4961190;28;20112;-88
2022/02/20 12:08:44;;;;;;;2.55;1.20;;;;;;;15.17;23.42;92668.94;4955671;28;20086;-86
2022/02/20 12:11:25;;;;;;;2.83;1.30;;;;;;;15.81;22.82;92647.22;4957498;28;20032;-86
2022/02/20 12:14:11;;;;;;;2.28;1.40;;;;;;;15.53;24.10;92657.31;4959258;28;20073;-87
2022/02/20 12:16:41;;;;;;;4.90;1.80;;;;;;;15.56;24.99;92669.88;4988686;28;20054;-87
2022/02/20 12:19:16;;;;;;;2.67;1.30;;;;;;;15.87;23.48;92650.44;4957718;28;20047;-87
2022/02/20 12:21:53;;;;;;;2.53;1.25;;;;;;;15.78;23.49;92662.88;4957565;28;20054;-87
2022/02/20 12:24:42;;;;;;;2.05;1.10;;;;;;;16.33;22.65;92656.84;4957885;28;20066;-88
2022/02/20 12:27:18;;;;;;;4.57;1.77;;;;;;;15.57;23.50;92639.00;4977994;28;20039;-87
2022/02/20 12:29:53;;;;;;;3.00;1.27;;;;;;;15.48;23.71;92636.38;4941438;28;20085;-87
2022/02/20 12:32:25;;;;;;;2.25;1.00;;;;;;;15.88;22.68;92614.28;4970251;28;20672;-87
2022/02/20 12:34:51;;;;;;;2.90;1.30;;;;;;;16.41;22.63;92639.38;4976412;28;20046;-87
2022/02/20 12:37:22;;;;;;;3.78;1.50;;;;;;;16.35;22.90;92636.16;4960712;28;20357;-87
2022/02/20 12:39:54;;;;;;;2.13;1.20;;;;;;;16.63;23.23;92606.63;4994098;28;20177;-89
2022/02/20 12:42:20;;;;;;;4.50;1.17;;;;;;;17.25;22.86;92632.38;4976823;28;20034;-87
2022/02/20 12:44:46;;;;;;;3.40;1.30;;;;;;;17.20;22.20;92629.94;4960092;28;20066;-88
2022/02/20 12:47:13;;;;;;;2.78;1.35;;;;;;;16.83;21.55;92637.63;4975728;28;20042;-89
2022/02/20 12:49:51;;;;;;;5.20;1.60;;;;;;;16.94;22.85;92637.28;4976280;28;20046;-87
2022/02/20 12:52:17;;;;;;;5.05;1.60;;;;;;;15.70;23.50;92624.09;4976380;28;20679;-87
2022/02/20 12:54:43;;;;;;;3.40;1.52;;;;;;;16.49;23.60;92629.88;4976524;28;20488;-87
2022/02/20 12:57:09;;;;;;;3.97;1.50;;;;;;;15.81;24.75;92630.59;4974977;28;20042;-88
2022/02/20 12:59:54;;;;;;;3.20;1.42;;;;;;;16.39;23.32;92633.66;4994097;28;20480;-87
2022/02/20 13:02:42;;;;;;;5.78;1.55;;;;;;;15.28;23.30;92621.94;4985817;28;20038;-86
2022/02/20 13:05:11;;;;;;;3.55;1.60;;;;;;;15.51;25.02;92606.72;4956693;28;20047;-87
2022/02/20 13:07:42;;;;;;;2.80;1.25;;;;;;;16.09;23.78;92619.66;4970538;28;20153;-88
2022/02/20 13:10:09;;;;;;;2.58;1.42;;;;;;;16.77;22.72;92614.31;4975705;28;20065;-90
2022/02/20 13:12:35;;;;;;;4.60;1.70;;;;;;;15.95;23.00;92615.34;4993551;28;20483;-87
2022/02/20 13:15:05;;;;;;;3.83;1.48;;;;;;;15.66;23.57;92621.28;4959822;28;20042;-87
2022/02/20 13:17:47;;;;;;;2.83;1.63;;;;;;;15.76;23.15;92623.63;4974506;28;20034;-87
2022/02/20 13:20:27;;;;;;;4.22;1.50;;;;;;;16.05;23.04;92631.91;4976228;28;20043;-87
2022/02/20 13:22:52;;;;;;;3.17;1.58;;;;;;;15.82;23.98;92606.50;4956490;28;20077;-86
2022/02/20 13:25:18;;;;;;;3.22;1.58;;;;;;;15.55;24.25;92612.16;4944596;28;20412;-87
2022/02/20 13:27:45;;;;;;;5.78;1.70;;;;;;;16.15;23.48;92619.16;4993356;28;20496;-87
2022/02/20 13:30:12;;;;;;;3.72;1.70;;;;;;;16.21;22.69;92611.81;4960199;28;20042;-87
2022/02/20 13:32:37;;;;;;;6.22;1.40;;;;;;;16.24;22.82;92569.72;4993186;28;20420;-87
2022/02/20 13:35:04;;;;;;;3.83;1.50;;;;;;;16.43;23.12;92603.63;4975100;28;20504;-88
2022/02/20 13:37:30;;;;;;;2.63;1.33;;;;;;;16.53;22.61;92617.59;4926991;28;20094;-87
2022/02/20 13:39:57;;;;;;;3.70;1.67;;;;;;;16.60;22.81;92612.56;4975674;28;20113;-86
2022/02/20 13:42:24;;;;;;;5.55;1.60;;;;;;;16.22;22.79;92616.03;4960044;28;20038;-86
2022/02/20 13:44:49;;;;;;;3.00;1.40;;;;;;;15.78;23.41;92592.44;4975861;28;20038;-87
2022/02/20 13:47:16;;;;;;;2.95;1.38;;;;;;;16.19;23.16;92611.38;4946597;28;20050;-86
2022/02/20 13:49:48;;;;;;;3.85;1.60;;;;;;;16.53;22.42;92614.94;4973280;28;20069;-87
2022/02/20 13:52:28;;;;;;;4.82;1.67;;;;;;;16.19;21.75;92604.22;4975389;28;20042;-86
2022/02/20 13:54:53;;;;;;;3.80;1.50;;;;;;;16.47;22.74;92590.56;4992856;28;20034;-86
2022/02/20 13:57:27;;;;;;;3.58;1.60;;;;;;;16.52;23.38;92610.75;4934678;28;20395;-86
2022/02/20 13:59:53;;;;;;;3.10;1.38;;;;;;;16.31;22.68;92600.13;4958918;28;20392;-86
2022/02/20 14:02:19;;;;;;;5.07;1.55;;;;;;;15.96;23.35;92605.53;4943707;28;20046;-85
2022/02/20 14:04:47;;;;;;;3.38;1.65;;;;;;;15.78;24.48;92604.81;4975119;28;20451;-89
2022/02/20 14:07:19;;;;;;;3.72;1.70;;;;;;;15.78;24.41;92587.16;4979133;28;20042;-85
2022/02/20 14:09:56;;;;;;;4.68;1.73;;;;;;;15.80;24.36;92589.44;4979085;28;20038;-90
2022/02/20 14:12:24;;;;;;;4.20;1.98;;;;;;;15.88;24.40;92580.75;5012242;28;20042;-86
2022/02/20 14:14:56;;;;;;;3.60;1.70;;;;;;;16.04;24.27;92583.63;4994474;28;20029;-87
2022/02/20 14:17:22;;;;;;;4.15;1.90;;;;;;;15.91;24.19;92581.97;5012243;28;20056;-86
2022/02/20 14:19:54;;;;;;;5.65;2.20;;;;;;;15.90;25.05;92583.06;5008163;28;20492;-89
2022/02/20 14:22:24;;;;;;;3.40;1.80;;;;;;;15.82;24.82;92579.34;4996328;28;20467;-86
2022/02/20 14:24:59;;;;;;;5.30;2.17;;;;;;;15.51;25.30;92567.13;4947377;28;20049;-86
2022/02/20 14:27:35;;;;;;;6.57;2.22;;;;;;;15.36;25.52;92588.75;4978514;28;20063;-87